createdAt,value
2018-07-26T05:51:54.083Z,6.00
2018-07-26T05:52:54.752Z,6.60
2018-07-26T05:53:55.456Z,6.40
2018-07-26T05:54:56.242Z,6.50
2018-07-26T05:55:56.880Z,6.10
2018-07-26T05:56:57.540Z,6.30
2018-07-26T05:57:58.232Z,6.00
2018-07-26T05:58:58.962Z,6.40
2018-07-26T06:00:59.890Z,5.80
2018-07-26T06:02:00.547Z,5.80
2018-07-26T06:03:01.238Z,5.80
2018-07-26T06:04:01.892Z,5.80
2018-07-26T06:05:02.537Z,5.80
2018-07-26T06:06:03.574Z,5.60
2018-07-26T06:08:04.626Z,5.10
2018-07-26T06:09:05.352Z,5.30
2018-07-26T06:10:06.008Z,5.10
2018-07-26T06:11:06.657Z,5.70
2018-07-26T06:12:07.325Z,5.20
2018-07-26T06:13:07.957Z,5.40
2018-07-26T06:14:08.627Z,5.50
2018-07-26T06:15:09.309Z,5.00
2018-07-26T06:16:09.990Z,5.60
2018-07-26T06:17:10.747Z,5.60
2018-07-26T06:18:11.422Z,5.40
2018-07-26T06:19:12.075Z,5.80
2018-07-26T06:20:12.936Z,5.60
2018-07-26T06:21:13.593Z,5.60
2018-07-26T06:22:15.091Z,5.30
2018-07-26T06:23:15.744Z,5.50
2018-07-26T06:24:16.401Z,5.40
2018-07-26T06:25:17.776Z,5.50
2018-07-26T06:26:18.508Z,5.40
2018-07-26T06:27:19.164Z,5.10
2018-07-26T06:28:19.876Z,5.20
2018-07-26T06:29:20.667Z,5.50
2018-07-26T06:30:21.302Z,5.30
2018-07-26T06:31:21.963Z,5.10
2018-07-26T06:32:22.626Z,5.30
2018-07-26T06:33:23.286Z,5.80
2018-07-26T06:35:24.318Z,5.40
2018-07-26T06:36:24.986Z,5.40
2018-07-26T06:37:25.615Z,5.30
2018-07-26T06:38:26.301Z,5.40
2018-07-26T06:39:27.209Z,5.40
2018-07-26T06:40:27.915Z,5.30
2018-07-26T06:41:28.545Z,5.20
2018-07-26T06:42:29.227Z,5.20
2018-07-26T06:43:29.969Z,4.90
2018-07-26T06:44:30.645Z,5.40
2018-07-26T06:46:33.896Z,5.00
2018-07-26T06:47:34.551Z,5.30
2018-07-26T06:48:35.288Z,5.30
2018-07-26T06:49:35.992Z,5.30
2018-07-26T06:50:36.761Z,4.90
2018-07-26T06:51:37.433Z,5.10
2018-07-26T06:52:38.089Z,4.90
2018-07-26T06:54:39.046Z,4.50
2018-07-26T06:55:39.710Z,4.50
2018-07-26T06:56:40.341Z,5.10
2018-07-26T06:57:41.097Z,4.40
2018-07-26T06:58:41.766Z,4.50
2018-07-26T07:00:42.759Z,4.50
2018-07-26T07:01:43.493Z,4.40
2018-07-26T07:02:44.182Z,4.50
2018-07-26T07:03:44.846Z,4.30
2018-07-26T07:04:45.518Z,4.30
2018-07-26T07:05:46.186Z,4.40
2018-07-26T07:06:46.827Z,4.10
2018-07-26T07:07:47.488Z,4.20
2018-07-26T07:08:48.154Z,4.30
2018-07-26T07:09:48.947Z,3.90
2018-07-26T07:10:49.601Z,4.20
2018-07-26T07:11:50.300Z,4.00
2018-07-26T07:12:50.975Z,4.10
2018-07-26T07:13:51.692Z,4.30
2018-07-26T07:14:52.384Z,3.80
2018-07-26T07:15:53.078Z,4.30
2018-07-26T07:16:53.829Z,4.20
2018-07-26T07:17:54.513Z,4.10
2018-07-26T07:18:55.191Z,4.30
2018-07-26T07:19:55.877Z,3.70
2018-07-26T07:20:56.571Z,3.70
2018-07-26T07:21:57.272Z,4.20
2018-07-26T07:22:57.951Z,4.00
2018-07-26T07:23:58.751Z,4.00
2018-07-26T07:24:59.453Z,3.90
2018-07-26T07:26:00.114Z,3.90
2018-07-26T07:27:00.806Z,4.00
2018-07-26T07:28:01.637Z,4.00
2018-07-26T07:29:02.301Z,4.00
2018-07-26T07:30:02.987Z,4.10
2018-07-26T07:31:03.867Z,4.10
2018-07-26T07:32:05.088Z,3.90
2018-07-26T07:33:05.861Z,4.10
2018-07-26T07:34:06.680Z,4.00
2018-07-26T07:35:13.979Z,3.90
2018-07-26T07:36:19.612Z,3.90
2018-07-26T07:37:20.329Z,4.00
2018-07-26T07:38:21.873Z,3.80
2018-07-26T07:39:22.639Z,4.10
2018-07-26T07:40:24.076Z,4.40
2018-07-26T07:41:30.126Z,3.90
2018-07-26T07:42:30.932Z,3.90
2018-07-26T07:43:32.048Z,4.30
2018-07-26T07:44:33.440Z,4.30
2018-07-26T07:45:34.147Z,4.10
2018-07-26T07:46:35.126Z,4.10
2018-07-26T07:47:36.053Z,4.20
2018-07-26T07:48:36.781Z,4.60
2018-07-26T07:49:37.456Z,4.00
2018-07-26T07:50:38.233Z,4.30
2018-07-26T07:51:38.932Z,4.20
2018-07-26T07:52:39.667Z,4.60
2018-07-26T07:53:40.390Z,4.40
2018-07-26T07:54:43.798Z,4.00
2018-07-26T07:56:02.904Z,4.00
2018-07-26T07:57:03.698Z,4.20
2018-07-26T07:58:06.929Z,4.20
2018-07-26T07:59:09.889Z,4.10
2018-07-26T08:00:10.714Z,4.00
2018-07-26T08:01:11.403Z,4.30
2018-07-26T08:02:12.688Z,4.00
2018-07-26T08:03:13.425Z,4.00
2018-07-26T08:04:14.237Z,3.80
2018-07-26T08:05:15.781Z,4.20
2018-07-26T08:06:16.539Z,3.90
2018-07-26T08:07:17.200Z,4.40
2018-07-26T08:08:17.864Z,3.90
2018-07-26T08:09:18.540Z,4.10
2018-07-26T08:10:19.480Z,3.70
2018-07-26T08:11:47.790Z,4.00
2018-07-26T08:12:56.130Z,3.70
2018-07-26T08:13:56.968Z,4.00
2018-07-26T08:14:57.699Z,3.70
2018-07-26T08:15:59.486Z,4.00
2018-07-26T08:17:00.331Z,3.70
2018-07-26T08:18:01.556Z,3.80
2018-07-26T08:19:02.434Z,3.60
2018-07-26T08:20:04.706Z,4.00
2018-07-26T08:21:07.104Z,3.60
2018-07-26T08:22:07.760Z,3.70
2018-07-26T08:23:08.575Z,3.80
2018-07-26T08:24:09.319Z,3.90
2018-07-26T08:25:10.143Z,3.60
2018-07-26T08:26:42.015Z,3.40
2018-07-26T08:27:42.755Z,3.60
2018-07-26T08:28:43.532Z,3.30
2018-07-26T08:29:44.196Z,3.70
2018-07-26T08:30:44.921Z,3.60
2018-07-26T08:31:45.657Z,3.90
2018-07-26T08:32:46.374Z,3.60
2018-07-26T08:33:55.238Z,3.60
2018-07-26T08:34:55.971Z,3.60
2018-07-26T08:36:00.752Z,3.30
2018-07-26T08:37:18.755Z,3.10
2018-07-26T08:38:19.412Z,3.10
2018-07-26T08:39:20.076Z,3.50
2018-07-26T08:40:20.755Z,3.50
2018-07-26T08:41:57.931Z,3.40
2018-07-26T08:42:59.841Z,3.40
2018-07-26T08:44:00.660Z,3.60
2018-07-26T08:45:01.320Z,3.50
2018-07-26T08:48:13.972Z,3.20
2018-07-26T08:49:58.282Z,3.40
2018-07-26T08:54:52.047Z,2.90
2018-07-26T08:55:53.979Z,3.00
2018-07-26T08:57:00.412Z,2.80
2018-07-26T08:58:18.556Z,2.80
2018-07-26T08:59:30.587Z,2.80
2018-07-26T09:01:01.370Z,3.00
2018-07-26T09:02:03.074Z,3.00
2018-07-26T09:03:04.789Z,2.90
2018-07-26T09:04:29.848Z,3.10
2018-07-26T09:05:31.443Z,2.80
2018-07-26T09:06:32.240Z,2.80
2018-07-26T09:07:58.506Z,2.80
2018-07-26T09:12:35.663Z,2.80
2018-07-26T09:13:45.417Z,2.60
2018-07-26T09:14:46.210Z,2.60
2018-07-26T09:16:23.237Z,2.80
2018-07-26T09:17:24.417Z,2.80
2018-07-26T09:18:25.092Z,2.80
2018-07-26T09:33:18.219Z,2.80
2018-07-26T09:34:33.442Z,2.80
2018-07-26T09:36:24.401Z,2.60
2018-07-26T09:37:26.727Z,2.60
2018-07-26T09:39:45.041Z,2.70
2018-07-26T09:41:24.215Z,2.60
2018-07-26T09:42:36.274Z,2.60
2018-07-26T09:43:38.715Z,2.70
2018-07-26T09:46:29.519Z,2.70
2018-07-26T09:49:28.106Z,2.50
2018-07-26T09:50:41.358Z,2.50
2018-07-26T09:52:18.901Z,2.50
2018-07-26T09:53:57.752Z,2.30
2018-07-26T09:55:11.922Z,2.20
2018-07-26T09:57:12.469Z,2.50
2018-07-26T09:58:58.844Z,2.60
2018-07-26T10:07:56.702Z,2.60
2018-07-26T10:09:18.079Z,2.40
2018-07-26T10:13:59.290Z,2.60
2018-07-26T10:16:48.748Z,2.40
2018-07-26T10:17:49.489Z,2.30
2018-07-26T10:18:52.131Z,2.30
2018-07-26T10:22:13.956Z,2.30
2018-07-26T10:23:15.491Z,2.10
2018-07-26T10:25:28.183Z,2.30
2018-07-26T10:26:44.636Z,2.20
2018-07-26T10:27:48.880Z,2.30
2018-07-26T10:29:02.133Z,2.20
2018-07-26T10:34:11.689Z,2.10
2018-07-26T10:35:21.862Z,2.10
2018-07-26T10:36:23.942Z,2.10
2018-07-26T10:37:25.537Z,2.20
2018-07-26T10:38:26.626Z,2.20
2018-07-26T10:39:58.841Z,2.00
2018-07-26T10:40:59.617Z,2.20
2018-07-26T10:42:00.770Z,2.00
2018-07-26T10:43:01.505Z,2.10
2018-07-26T10:44:03.662Z,2.10
2018-07-26T10:45:04.551Z,2.00
2018-07-26T10:46:05.492Z,2.10
2018-07-26T10:47:09.045Z,2.00
2018-07-26T10:48:31.143Z,2.20
2018-07-26T10:51:33.496Z,2.20
2018-07-26T10:52:53.269Z,2.00
2018-07-26T10:54:18.760Z,2.30
2018-07-26T10:55:19.669Z,2.00
2018-07-26T10:57:13.904Z,2.20
2018-07-26T10:58:19.571Z,2.00
2018-07-26T11:12:05.324Z,2.20
2018-07-26T11:13:07.201Z,2.10
2018-07-26T11:14:09.910Z,2.20
2018-07-26T11:15:10.652Z,2.30
2018-07-26T11:16:29.363Z,2.40
2018-07-26T11:17:31.641Z,2.10
2018-07-26T11:20:29.551Z,2.20
2018-07-26T11:25:10.497Z,2.30
2018-07-26T11:26:13.821Z,2.30
2018-07-26T11:27:14.711Z,2.50
2018-07-26T11:28:19.962Z,2.10
2018-07-26T11:29:35.640Z,2.20
2018-07-26T11:31:06.229Z,2.20
2018-07-26T11:34:01.025Z,2.20
2018-07-26T11:35:18.410Z,2.20
2018-07-26T11:36:24.389Z,2.30
2018-07-26T11:37:30.485Z,2.30
2018-07-26T11:38:32.360Z,2.20
2018-07-26T11:39:39.133Z,2.50
2018-07-26T11:47:04.271Z,2.50
2018-07-26T11:55:14.731Z,2.40
2018-07-26T11:58:43.933Z,2.20
2018-07-26T12:01:40.455Z,2.10
2018-07-26T12:02:43.609Z,2.20
2018-07-26T12:03:44.519Z,2.30
2018-07-26T12:06:39.614Z,2.20
2018-07-26T12:07:53.246Z,2.30
2018-07-26T12:09:18.366Z,2.60
2018-07-26T12:10:49.664Z,2.60
2018-07-26T12:12:24.726Z,2.00
2018-07-26T12:19:17.856Z,2.30
2018-07-26T12:22:17.684Z,2.20
2018-07-26T12:23:21.332Z,2.20
2018-07-26T12:24:23.346Z,2.20
2018-07-26T12:25:26.549Z,2.20
2018-07-26T12:26:27.648Z,2.20
2018-07-26T12:28:06.267Z,2.20
2018-07-26T12:29:59.105Z,2.20
2018-07-26T12:31:18.126Z,2.30
2018-07-26T12:32:31.247Z,2.40
2018-07-26T12:33:37.648Z,2.30
2018-07-26T12:35:06.189Z,2.20
2018-07-26T12:36:10.538Z,2.10
2018-07-26T12:37:50.072Z,2.10
2018-07-26T12:40:46.584Z,2.00
2018-07-26T12:41:48.782Z,2.00
2018-07-26T12:42:51.953Z,2.20
2018-07-26T12:43:52.791Z,2.20
2018-07-26T12:44:53.492Z,2.20
2018-07-26T12:45:57.499Z,2.30
2018-07-26T12:46:58.507Z,2.30
2018-07-26T12:48:23.365Z,2.30
2018-07-26T12:49:25.160Z,2.10
2018-07-26T12:50:26.017Z,2.20
2018-07-26T12:51:26.924Z,2.10
2018-07-26T12:52:27.742Z,2.50
2018-07-26T12:53:29.426Z,2.20
2018-07-26T12:54:30.329Z,2.10
2018-07-26T12:55:31.019Z,2.40
2018-07-26T12:59:17.792Z,2.30
2018-07-26T13:00:53.315Z,2.10
2018-07-26T13:01:54.337Z,2.00
2018-07-26T13:02:56.441Z,1.90
2018-07-26T13:04:06.016Z,2.20
2018-07-26T13:05:46.775Z,2.00
2018-07-26T13:06:55.746Z,2.10
2018-07-26T13:12:02.554Z,2.20
2018-07-26T13:13:04.091Z,2.20
2018-07-26T13:14:04.970Z,2.30
2018-07-26T13:15:26.285Z,2.20
2018-07-26T13:16:27.277Z,2.10
2018-07-26T13:17:29.739Z,2.20
2018-07-26T13:18:51.795Z,2.40
2018-07-26T13:20:06.470Z,2.30
2018-07-26T13:21:11.496Z,2.40
2018-07-26T13:22:12.485Z,2.40
2018-07-26T13:23:44.372Z,2.20
2018-07-26T13:24:48.533Z,2.20
2018-07-26T13:26:09.911Z,2.20
2018-07-26T13:27:19.119Z,2.40
2018-07-26T13:29:45.311Z,2.40
2018-07-26T13:30:43.333Z,2.50
2018-07-26T13:31:45.572Z,2.50
2018-07-26T13:32:48.802Z,2.30
2018-07-26T13:33:49.614Z,2.00
2018-07-26T13:35:03.954Z,2.20
2018-07-26T13:36:06.156Z,2.30
2018-07-26T13:37:07.145Z,2.40
2018-07-26T13:38:08.042Z,2.50
2018-07-26T13:39:09.870Z,2.60
2018-07-26T13:40:26.736Z,2.40
2018-07-26T13:41:27.771Z,2.40
2018-07-26T13:42:28.753Z,2.30
2018-07-26T13:43:42.257Z,2.40
2018-07-26T13:44:43.214Z,2.20
2018-07-26T13:45:48.784Z,2.50
2018-07-26T13:46:53.187Z,2.40
2018-07-26T13:48:49.827Z,2.70
2018-07-26T13:49:53.861Z,2.60
2018-07-26T13:51:19.692Z,2.60
2018-07-26T13:52:22.045Z,2.50
2018-07-26T13:57:08.272Z,2.30
2018-07-26T13:58:20.861Z,2.90
2018-07-26T14:01:10.581Z,2.70
2018-07-26T14:02:11.454Z,2.60
2018-07-26T14:03:18.254Z,3.20
2018-07-26T14:04:19.011Z,2.60
2018-07-26T14:05:19.704Z,2.40
2018-07-26T14:06:20.409Z,2.60
2018-07-26T14:14:32.663Z,2.70
2018-07-26T14:15:43.461Z,2.80
2018-07-26T14:16:44.495Z,2.80
2018-07-26T14:18:25.743Z,2.60
2018-07-26T14:19:48.511Z,2.70
2018-07-26T14:20:51.686Z,2.50
2018-07-26T14:21:53.624Z,2.50
2018-07-26T14:22:54.265Z,2.70
2018-07-26T14:25:47.857Z,2.80
2018-07-26T14:26:48.547Z,2.60
2018-07-26T14:27:49.290Z,2.50
2018-07-26T14:30:40.148Z,2.70
2018-07-26T14:31:53.695Z,2.50
2018-07-26T14:33:19.120Z,2.80
2018-07-26T14:34:24.478Z,2.70
2018-07-26T14:35:56.509Z,2.50
2018-07-26T14:37:17.609Z,2.90
2018-07-26T14:38:19.449Z,2.80
2018-07-26T14:43:03.106Z,2.70
2018-07-26T14:44:04.761Z,2.80
2018-07-26T14:45:09.726Z,2.80
2018-07-26T14:46:26.926Z,2.50
2018-07-26T14:47:27.796Z,2.50
2018-07-26T14:52:26.277Z,2.70
2018-07-26T14:55:13.889Z,2.70
2018-07-26T14:56:14.767Z,2.70
2018-07-26T14:57:49.720Z,2.40
2018-07-26T14:58:50.870Z,2.60
2018-07-26T14:59:51.616Z,2.60
2018-07-26T15:00:59.499Z,2.60
2018-07-26T15:02:00.251Z,2.60
2018-07-26T15:03:00.917Z,2.60
2018-07-26T15:04:29.715Z,2.70
2018-07-26T15:05:30.404Z,2.40
2018-07-26T15:06:31.123Z,2.70
2018-07-26T15:07:32.003Z,2.70
2018-07-26T15:08:36.949Z,2.70
2018-07-26T15:09:45.678Z,2.70
2018-07-26T15:10:55.116Z,2.60
2018-07-26T15:15:59.171Z,2.70
2018-07-26T15:16:59.926Z,2.70
2018-07-26T15:19:21.259Z,2.90
2018-07-26T15:20:22.693Z,2.80
2018-07-26T15:21:23.410Z,2.70
2018-07-26T15:22:24.109Z,3.10
2018-07-26T15:23:54.609Z,2.70
2018-07-26T15:28:31.746Z,3.00
2018-07-26T15:29:32.569Z,2.90
2018-07-26T15:30:40.721Z,2.80
2018-07-26T15:32:27.694Z,2.80
2018-07-26T15:34:03.079Z,3.00
2018-07-26T15:35:03.779Z,3.50
2018-07-26T15:36:05.345Z,3.00
2018-07-26T15:40:42.204Z,3.40
2018-07-26T15:41:44.641Z,3.50
2018-07-26T15:42:45.432Z,3.10
2018-07-26T15:43:46.079Z,3.30
2018-07-26T15:44:46.810Z,3.10
2018-07-26T15:45:47.483Z,3.50
2018-07-26T15:47:22.500Z,3.20
2018-07-26T15:48:23.291Z,3.30
2018-07-26T15:49:48.429Z,3.50
2018-07-26T15:50:49.267Z,2.90
2018-07-26T15:53:41.224Z,3.30
2018-07-26T15:54:57.195Z,3.30
2018-07-26T15:55:59.776Z,3.20
2018-07-26T15:57:04.433Z,4.20
2018-07-26T15:59:54.713Z,3.50
2018-07-26T16:00:55.573Z,3.50
2018-07-26T16:02:17.480Z,3.20
2018-07-26T16:03:29.269Z,3.30
2018-07-26T16:04:59.829Z,3.30
2018-07-26T16:06:01.630Z,3.30
2018-07-26T16:07:02.686Z,3.30
2018-07-26T16:08:03.637Z,3.20
2018-07-26T16:09:04.379Z,3.40
2018-07-26T16:10:05.748Z,3.20
2018-07-26T16:11:21.807Z,3.40
2018-07-26T16:13:20.219Z,3.30
2018-07-26T16:14:18.921Z,3.30
